Track Русакова Александра

Time Latitude Longitude Accuracy (66% radius in meters) Altitude (meters) Speed (km/hour) Bearing (degrees) Battery (%) GPS flag
08:31:05 60.371115 29.556455 8 62 0 46.296070098877 72 1 delete
08:31:01 60.371095 29.556439 24 81 0.26948112249374 63.848163604736 72 1 delete
08:30:58 60.371060 29.556323 16 74 0 198.77577209473 72 1 delete
08:30:52 60.371078 29.556306 8 76 0.5794825553894 205.94195556641 72 1 delete
08:30:40 60.371109 29.556321 6 80 0 15.965081214905 72 1 delete
08:30:38 60.371106 29.556319 8 78 0 15.965081214905 72 1 delete
08:30:31 60.371061 29.556303 6 86 0.05786631628871 15.965081214905 72 1 delete
08:30:28 60.371038 29.556294 6 90 0 359.38891601562 72 1 delete
08:30:15 60.371019 29.556247 8 78 0 359.38891601562 72 1 delete
08:30:10 60.371019 29.556254 6 71 0 359.38891601562 72 1 delete
08:30:03 60.371028 29.556315 6 70 0 359.38891601562 72 1 delete
08:29:56 60.371029 29.556344 8 64 0 359.38891601562 72 1 delete
08:29:50 60.371013 29.556292 6 68 0 359.38891601562 72 1 delete
08:29:34 60.370984 29.556278 6 75 0 3.5007123947144 72 1 delete
08:29:20 60.370967 29.556292 6 71 0 21.715028762817 72 1 delete
08:29:08 60.370957 29.556287 6 72 0 21.715028762817 72 1 delete
08:28:55 60.371017 29.556301 4 79 0 21.715028762817 72 1 delete
08:28:42 60.370977 29.556223 6 89 0 21.715028762817 72 1 delete
08:28:30 60.370968 29.556261 6 77 0 21.715028762817 72 1 delete
08:28:18 60.370992 29.556258 6 84 0 21.715028762817 72 1 delete
08:28:12 60.370993 29.556287 6 81 0 21.715028762817 72 1 delete
08:28:06 60.370990 29.556335 8 76 0 21.715028762817 72 1 delete
08:27:53 60.370985 29.556357 6 74 0 21.744422912598 72 1 delete
08:27:41 60.370952 29.556382 6 69 0 21.744422912598 76 1 delete
08:27:29 60.370963 29.556356 4 78 0 21.744422912598 76 1 delete
08:27:16 60.371002 29.556412 6 68 0.31697088479996 21.744422912598 76 1 delete
08:27:03 60.370980 29.556407 6 67 0 16.361797332764 76 1 delete
08:26:50 60.370981 29.556394 6 72 0 16.361797332764 76 1 delete
08:26:45 60.370978 29.556375 6 72 0 15.786071777344 76 1 delete
08:26:36 60.370995 29.556296 4 79 0 15.786071777344 76 1 delete
08:26:24 60.371007 29.556302 6 81 0 15.786071777344 76 1 delete
08:26:11 60.370995 29.556297 6 83 0 140.51095581055 76 1 delete
08:25:59 60.371015 29.556304 6 83 0 197.74856567383 76 1 delete
08:25:50 60.371015 29.556319 6 86 0 197.74856567383 76 1 delete
08:25:46 60.371004 29.556319 6 86 0 197.74856567383 76 1 delete
08:25:34 60.371004 29.556252 6 83 0 197.74856567383 76 1 delete
08:25:21 60.370986 29.556304 6 79 0 41.043899536133 76 1 delete
08:25:08 60.371011 29.556295 6 88 0 30.605953216553 76 1 delete
08:24:55 60.370992 29.556237 6 81 0 30.605953216553 76 1 delete
08:24:42 60.371011 29.556282 6 80 0 30.605953216553 76 1 delete
08:24:29 60.370989 29.556270 6 77 0 167.06109619141 76 1 delete
08:24:18 60.371003 29.556232 12 56 0 167.06109619141 76 1 delete
08:24:16 60.371010 29.556238 6 50 0 167.06109619141 76 1 delete
08:24:04 60.371057 29.556308 12 61 0 4.5449504852295 76 1 delete
08:23:51 60.371073 29.556335 6 78 0 202.08160400391 76 1 delete
08:23:39 60.371056 29.556337 6 75 0 29.710414886475 76 1 delete
08:23:26 60.371034 29.556314 6 81 0 337.43551635742 76 1 delete
08:23:14 60.371050 29.556304 6 79 0 337.43551635742 76 1 delete
08:23:01 60.371045 29.556295 6 80 0 337.43551635742 76 1 delete
08:23:00 60.371043 29.556282 6 79 0 337.43551635742 76 1 delete